Strona główna
METAR-TAF:

METAR-TAF

Lotnisko :

Port lotniczy Calvi - Sainte-Catherine

Calvi, Francja

Szerokość geograficzna: 42-32N, Długość geograficzna: 008-48E, wysokość: 64 m

Aktualna obserwacja pogody

Raport powstał 40 minut temu, godzina 11:00 UTC
Wiatr 14 kt od północ
Temperatura 15°C
Wilgotność 51%
Ciśnienie 1016 hPa
Widzialność 10 km lub więcej
Mało chmury na wysokości 5400 ft

METAR: LFKC 101100Z AUTO 01014KT 9999 FEW054 15/05 Q1016 NOSIG

czas: 12:40 (11:40 UTC)

Prognoza

Raport powstał 3 godziny i 40 minut temu, godzina 08:00 UTC
Prognoza ważna od 10 godzina 09 UTC do 11 godzina 09 UTC
Wiatr 10 kt od północno-północny wschód
Widzialność 10 km lub więcej
Mało chmury na wysokości 5000 ft

TAF: LFKC 100800Z 1009/1109 02010KT 9999 FEW050 TX15/1012Z TN06/1103Z

Obserwacja i prognoza pogody dla ponad 4000 lotnisk (raport METAR i TAF).

Dostępne stacje oznaczono żółtymi i czerwonymi punktami na mapie.

Najedź kursorem aby zobaczyć nazwę stacji.

Kliknij aby zobaczyć obserwacje i prognozy pogody.

Aby zmienić mapę: kliknij na zielony przycisk z czarnym krzyżykiem, aby powiększyć; na zielony przycisk z myślnikiem, aby pomniejszyć; na zielone strzałki, aby przejść do map sąsiednich.


METAR-TAF: